createdAt,value
2023-07-28T00:01:58.227Z,19.30
2023-07-28T00:04:24.974Z,19.20
2023-07-28T00:06:51.804Z,19.20
2023-07-28T00:09:18.526Z,19.20
2023-07-28T00:11:45.170Z,19.20
2023-07-28T00:14:11.860Z,19.20
2023-07-28T00:16:39.088Z,19.20
2023-07-28T00:19:05.937Z,19.20
2023-07-28T00:21:32.730Z,19.20
2023-07-28T00:23:59.433Z,19.30
2023-07-28T00:26:26.203Z,19.30
2023-07-28T00:28:52.896Z,19.40
2023-07-28T00:31:19.543Z,19.30
2023-07-28T00:33:47.312Z,19.30
2023-07-28T00:36:14.046Z,19.30
2023-07-28T00:38:40.761Z,19.30
2023-07-28T00:41:07.492Z,19.30
2023-07-28T00:43:34.152Z,19.30
2023-07-28T00:46:00.989Z,19.30
2023-07-28T00:48:27.826Z,19.30
2023-07-28T00:50:55.511Z,19.30
2023-07-28T00:53:24.407Z,19.30
2023-07-28T00:55:52.120Z,19.30
2023-07-28T00:58:20.094Z,19.30
2023-07-28T01:00:46.850Z,19.30
2023-07-28T01:03:14.124Z,19.30
2023-07-28T01:05:55.267Z,19.30
2023-07-28T01:08:55.318Z,19.30
2023-07-28T01:11:22.628Z,19.30
2023-07-28T01:13:49.325Z,19.30
2023-07-28T01:16:16.397Z,19.40
2023-07-28T01:18:43.154Z,19.30
2023-07-28T01:21:18.825Z,19.30
2023-07-28T01:24:20.721Z,19.40
2023-07-28T01:26:48.255Z,19.30
2023-07-28T01:29:16.834Z,19.30
2023-07-28T01:31:43.772Z,19.30
2023-07-28T01:34:10.495Z,19.30
2023-07-28T01:36:37.353Z,19.30
2023-07-28T01:39:06.390Z,19.30
2023-07-28T01:41:33.070Z,19.30
2023-07-28T01:43:59.730Z,19.30
2023-07-28T01:46:26.534Z,19.30
2023-07-28T01:48:53.260Z,19.30
2023-07-28T01:51:19.982Z,19.30
2023-07-28T01:53:46.766Z,19.30
2023-07-28T01:56:13.442Z,19.30
2023-07-28T01:58:40.120Z,19.30
2023-07-28T02:01:06.884Z,19.30
2023-07-28T02:03:33.661Z,19.30
2023-07-28T02:06:01.961Z,19.30
2023-07-28T02:08:28.638Z,19.30
2023-07-28T02:10:55.346Z,19.30
2023-07-28T02:13:22.094Z,19.30
2023-07-28T02:15:48.757Z,19.30
2023-07-28T02:18:15.446Z,19.30
2023-07-28T02:20:42.110Z,19.30
2023-07-28T02:23:08.822Z,19.30
2023-07-28T02:25:36.150Z,19.30
2023-07-28T02:28:02.887Z,19.30
2023-07-28T02:30:29.680Z,19.30
2023-07-28T02:32:56.805Z,19.30
2023-07-28T02:35:23.528Z,19.30
2023-07-28T02:37:50.561Z,19.30
2023-07-28T02:40:17.422Z,19.30
2023-07-28T02:42:44.132Z,19.30
2023-07-28T02:45:11.542Z,19.20
2023-07-28T02:47:38.858Z,19.20
2023-07-28T02:50:06.125Z,19.20
2023-07-28T02:52:33.126Z,19.20
2023-07-28T02:55:00.033Z,19.20
2023-07-28T02:57:27.649Z,19.20
2023-07-28T02:59:54.802Z,19.20
2023-07-28T03:02:21.572Z,19.20
2023-07-28T03:04:49.000Z,19.20
2023-07-28T03:07:42.623Z,19.20
2023-07-28T03:10:10.455Z,19.20
2023-07-28T03:12:38.005Z,19.20
2023-07-28T03:15:05.220Z,19.20
2023-07-28T03:17:32.045Z,19.20
2023-07-28T03:19:58.781Z,19.20
2023-07-28T03:22:25.538Z,19.20
2023-07-28T03:24:52.305Z,19.20
2023-07-28T03:27:19.048Z,19.30
2023-07-28T03:29:46.280Z,19.20
2023-07-28T03:32:13.654Z,19.20
2023-07-28T03:34:41.129Z,19.20
2023-07-28T03:37:11.251Z,19.20
2023-07-28T03:39:39.027Z,19.10
2023-07-28T03:42:05.965Z,19.10
2023-07-28T03:44:32.804Z,19.20
2023-07-28T03:46:59.570Z,19.20
2023-07-28T03:49:26.292Z,19.20
2023-07-28T03:51:53.440Z,19.20
2023-07-28T03:54:22.635Z,19.10
2023-07-28T03:56:50.161Z,19.20
2023-07-28T03:59:16.922Z,19.20
2023-07-28T04:01:43.695Z,19.10
2023-07-28T04:04:10.558Z,19.10
2023-07-28T04:06:45.366Z,19.10
2023-07-28T04:09:13.987Z,19.10
2023-07-28T04:11:40.694Z,19.20
2023-07-28T04:14:07.612Z,19.20
2023-07-28T04:16:35.139Z,19.20
2023-07-28T04:19:02.149Z,19.20
2023-07-28T04:21:28.979Z,19.20
2023-07-28T04:23:55.907Z,19.20
2023-07-28T04:26:25.151Z,19.10
2023-07-28T04:28:58.369Z,19.10
2023-07-28T04:31:25.181Z,19.10
2023-07-28T04:33:56.842Z,19.10
2023-07-28T04:36:28.033Z,19.10
2023-07-28T04:38:54.703Z,19.20
2023-07-28T04:41:24.987Z,19.10
2023-07-28T04:43:53.822Z,19.20
2023-07-28T04:46:22.082Z,19.20
2023-07-28T04:48:56.082Z,19.20
2023-07-28T04:51:48.638Z,19.10
2023-07-28T04:54:34.123Z,19.10
2023-07-28T04:57:00.885Z,19.10
2023-07-28T04:59:32.954Z,19.20
2023-07-28T05:01:59.910Z,19.20
2023-07-28T05:04:27.237Z,19.20
2023-07-28T05:06:54.229Z,19.20
2023-07-28T05:09:20.919Z,19.20
2023-07-28T05:11:48.907Z,19.20
2023-07-28T05:14:16.556Z,19.30
2023-07-28T05:16:43.556Z,19.30
2023-07-28T05:19:10.233Z,19.30
2023-07-28T05:21:59.794Z,19.30
2023-07-28T05:24:35.784Z,19.20
2023-07-28T05:27:05.613Z,19.20
2023-07-28T05:29:32.345Z,19.20
2023-07-28T05:32:04.932Z,19.20
2023-07-28T05:34:39.274Z,19.30
2023-07-28T05:37:06.228Z,19.30
2023-07-28T05:39:34.303Z,19.30
2023-07-28T05:42:01.011Z,19.30
2023-07-28T05:44:27.957Z,19.30
2023-07-28T05:46:54.825Z,19.30
2023-07-28T05:49:21.735Z,19.40
2023-07-28T05:51:48.473Z,19.30
2023-07-28T05:54:16.300Z,19.30
2023-07-28T05:56:43.895Z,19.30
2023-07-28T05:59:10.601Z,19.30
2023-07-28T06:01:37.550Z,19.30
2023-07-28T06:04:32.287Z,19.30
2023-07-28T06:07:01.217Z,19.30
2023-07-28T06:09:27.929Z,19.30
2023-07-28T06:11:54.746Z,19.30
2023-07-28T06:14:23.717Z,19.30
2023-07-28T06:16:50.480Z,19.30
2023-07-28T06:19:24.557Z,19.30
2023-07-28T06:21:52.764Z,19.30
2023-07-28T06:24:20.310Z,19.30
2023-07-28T06:26:47.276Z,19.40
2023-07-28T06:29:14.150Z,19.40
2023-07-28T06:31:40.984Z,19.40
2023-07-28T06:34:07.798Z,19.40
2023-07-28T06:36:34.618Z,19.50
2023-07-28T06:39:01.287Z,19.50
2023-07-28T06:41:28.458Z,19.40
2023-07-28T06:44:00.731Z,19.40
2023-07-28T06:46:29.674Z,19.50
2023-07-28T06:48:56.432Z,19.50
2023-07-28T06:51:23.164Z,19.50
2023-07-28T06:53:49.842Z,19.50
2023-07-28T06:56:16.511Z,19.50
2023-07-28T06:58:49.535Z,19.50
2023-07-28T07:01:23.145Z,19.60
2023-07-28T07:03:49.992Z,19.50
2023-07-28T07:06:16.698Z,19.50
2023-07-28T07:08:43.728Z,19.60
2023-07-28T07:11:10.635Z,19.60
2023-07-28T07:13:37.303Z,19.60
2023-07-28T07:16:04.173Z,19.60
2023-07-28T07:18:30.843Z,19.60
2023-07-28T07:20:57.505Z,19.50
2023-07-28T07:23:24.288Z,19.60
2023-07-28T07:25:51.204Z,19.60
2023-07-28T07:28:18.180Z,19.60
2023-07-28T07:30:44.899Z,19.60
2023-07-28T07:33:11.626Z,19.70
2023-07-28T07:35:39.031Z,19.70
2023-07-28T07:38:09.901Z,19.70
2023-07-28T07:40:37.268Z,19.60
2023-07-28T07:43:04.576Z,19.70
2023-07-28T07:45:31.926Z,19.60
2023-07-28T07:47:59.917Z,19.70
2023-07-28T07:50:26.700Z,19.60
2023-07-28T07:52:53.372Z,19.60
2023-07-28T07:55:20.070Z,19.60
2023-07-28T07:57:46.770Z,19.60
2023-07-28T08:00:14.931Z,19.60
2023-07-28T08:02:43.550Z,19.60
2023-07-28T08:05:12.064Z,19.70
2023-07-28T08:07:38.760Z,19.70
2023-07-28T08:10:05.897Z,19.70
2023-07-28T08:12:33.273Z,19.70
2023-07-28T08:15:00.100Z,19.80
2023-07-28T08:17:26.950Z,19.80
2023-07-28T08:19:53.669Z,19.80
2023-07-28T08:22:20.377Z,19.80
2023-07-28T08:24:47.003Z,19.90
2023-07-28T08:27:13.686Z,19.80
2023-07-28T08:29:40.395Z,19.80
2023-07-28T08:32:07.754Z,19.80
2023-07-28T08:34:34.478Z,19.80
2023-07-28T08:37:01.193Z,19.80
2023-07-28T08:39:27.854Z,19.80
2023-07-28T08:42:04.747Z,19.80
2023-07-28T08:44:35.609Z,19.80
2023-07-28T08:47:05.552Z,19.80
2023-07-28T08:49:34.135Z,19.80
2023-07-28T08:52:01.682Z,19.80
2023-07-28T08:54:29.051Z,19.80
2023-07-28T08:56:55.754Z,19.80
2023-07-28T08:59:27.674Z,19.80
2023-07-28T09:01:57.360Z,19.80
2023-07-28T09:04:24.901Z,19.80
2023-07-28T09:06:52.509Z,19.80
2023-07-28T09:09:26.081Z,19.90
2023-07-28T09:11:55.031Z,19.90
2023-07-28T09:14:24.865Z,19.90
2023-07-28T09:16:51.790Z,19.90
2023-07-28T09:19:20.458Z,19.90
2023-07-28T09:22:00.333Z,19.90
2023-07-28T09:24:34.992Z,19.90
2023-07-28T09:27:02.963Z,19.90
2023-07-28T09:29:30.038Z,19.90
2023-07-28T09:32:05.704Z,19.90
2023-07-28T09:34:33.483Z,19.90
2023-07-28T09:37:01.610Z,19.90
2023-07-28T09:39:29.071Z,19.90
2023-07-28T09:41:59.466Z,19.90
2023-07-28T09:44:26.448Z,19.90
2023-07-28T09:46:55.222Z,19.90
2023-07-28T09:49:35.496Z,19.90
2023-07-28T09:52:06.745Z,19.90
2023-07-28T09:54:39.443Z,19.90
2023-07-28T09:57:11.593Z,19.90
2023-07-28T09:59:40.536Z,19.90
2023-07-28T10:02:07.972Z,19.90
2023-07-28T10:04:35.043Z,19.90
2023-07-28T10:07:03.159Z,19.90
2023-07-28T10:09:31.585Z,19.90
2023-07-28T10:11:58.267Z,19.90
2023-07-28T10:14:35.714Z,19.90
2023-07-28T10:17:05.308Z,19.90
2023-07-28T10:19:36.565Z,19.90
2023-07-28T10:22:06.924Z,20.00
2023-07-28T10:24:53.466Z,20.00
2023-07-28T10:27:36.247Z,20.00
2023-07-28T10:30:05.972Z,20.00
2023-07-28T10:32:40.974Z,20.00
2023-07-28T10:35:09.830Z,20.00
2023-07-28T10:37:37.760Z,20.00
2023-07-28T10:40:36.682Z,20.00
2023-07-28T10:43:05.953Z,20.00
2023-07-28T10:45:33.891Z,20.00
2023-07-28T10:48:01.362Z,20.00
2023-07-28T10:50:29.914Z,20.00
2023-07-28T10:52:56.993Z,20.00
2023-07-28T10:55:26.230Z,20.00
2023-07-28T10:57:54.481Z,20.00
2023-07-28T11:00:22.977Z,20.00
2023-07-28T11:02:52.221Z,20.00
2023-07-28T11:05:27.872Z,20.00
2023-07-28T11:08:02.992Z,20.10
2023-07-28T11:10:31.174Z,20.10
2023-07-28T11:13:06.693Z,20.10
2023-07-28T11:15:37.096Z,20.00
2023-07-28T11:18:04.705Z,20.10
2023-07-28T11:20:31.549Z,20.10
2023-07-28T11:23:06.738Z,20.10
2023-07-28T11:25:34.787Z,20.10
2023-07-28T11:28:04.193Z,20.10
2023-07-28T11:30:32.265Z,20.10
2023-07-28T11:32:59.151Z,20.10
2023-07-28T11:35:25.908Z,20.10
2023-07-28T11:37:54.230Z,20.10
2023-07-28T11:40:23.607Z,20.10
2023-07-28T11:42:52.741Z,20.10
2023-07-28T11:45:20.925Z,20.10
2023-07-28T11:47:58.194Z,20.20
2023-07-28T11:50:30.797Z,20.20
2023-07-28T11:53:01.095Z,20.20
2023-07-28T11:55:27.825Z,20.20
2023-07-28T11:57:54.645Z,20.20
2023-07-28T12:00:31.481Z,20.20
2023-07-28T12:03:04.862Z,20.20
2023-07-28T12:05:32.195Z,20.20
2023-07-28T12:07:58.919Z,20.20
2023-07-28T12:20:47.869Z,20.30
2023-07-28T12:25:52.030Z,20.20
2023-07-28T12:28:19.556Z,20.20
2023-07-28T12:30:50.159Z,20.20
2023-07-28T12:50:44.652Z,20.20
2023-07-28T12:53:15.263Z,20.20
2023-07-28T13:03:14.756Z,20.20
2023-07-28T13:05:44.317Z,20.20
2023-07-28T13:08:11.419Z,20.30
2023-07-28T13:13:13.140Z,20.30
2023-07-28T13:15:40.588Z,20.30
2023-07-28T13:18:07.773Z,20.30
2023-07-28T13:20:34.533Z,20.30
2023-07-28T13:23:01.188Z,20.30
2023-07-28T13:25:27.874Z,20.30
2023-07-28T13:27:54.740Z,20.30
2023-07-28T13:30:21.797Z,20.30
2023-07-28T13:32:48.762Z,20.30
2023-07-28T13:35:16.219Z,20.30
2023-07-28T13:37:43.127Z,20.30
2023-07-28T13:40:12.121Z,20.30
2023-07-28T13:42:40.348Z,20.30
2023-07-28T13:45:07.564Z,20.40
2023-07-28T13:47:34.237Z,20.40
2023-07-28T13:50:01.061Z,20.30
2023-07-28T13:52:27.980Z,20.40
2023-07-28T13:57:25.331Z,20.40
2023-07-28T13:59:51.969Z,20.40
2023-07-28T14:02:19.483Z,20.30
2023-07-28T14:04:46.311Z,20.30
2023-07-28T14:07:13.106Z,20.30
2023-07-28T14:09:39.933Z,20.30
2023-07-28T14:12:07.619Z,20.40
2023-07-28T14:14:34.360Z,20.40
2023-07-28T14:17:01.157Z,20.40
2023-07-28T14:19:27.899Z,20.40
2023-07-28T14:21:54.657Z,20.40
2023-07-28T14:24:21.647Z,20.40
2023-07-28T14:26:48.321Z,20.40
2023-07-28T14:29:15.012Z,20.50
2023-07-28T14:31:42.022Z,20.50
2023-07-28T14:34:08.682Z,20.50
2023-07-28T14:36:38.246Z,20.50
2023-07-28T14:39:04.930Z,20.40
2023-07-28T14:41:31.918Z,20.40
2023-07-28T14:43:58.856Z,20.40
2023-07-28T14:46:26.187Z,20.40
2023-07-28T14:48:53.757Z,20.40
2023-07-28T14:51:20.523Z,20.40
2023-07-28T14:53:48.156Z,20.50
2023-07-28T14:56:16.746Z,20.50
2023-07-28T14:58:43.862Z,20.50
2023-07-28T15:01:12.033Z,20.50
2023-07-28T15:03:39.435Z,20.50
2023-07-28T15:06:06.563Z,20.50
2023-07-28T15:08:33.483Z,20.50
2023-07-28T15:11:00.584Z,20.50
2023-07-28T15:13:27.424Z,20.50
2023-07-28T15:15:54.976Z,20.40
2023-07-28T15:18:21.824Z,20.50
2023-07-28T15:20:48.640Z,20.50
2023-07-28T15:23:15.382Z,20.50
2023-07-28T15:25:46.558Z,20.40
2023-07-28T15:28:14.356Z,20.40
2023-07-28T15:30:43.934Z,20.50
2023-07-28T15:33:12.473Z,20.50
2023-07-28T15:35:39.229Z,20.50
2023-07-28T15:38:05.931Z,20.50
2023-07-28T15:40:32.592Z,20.50
2023-07-28T15:42:59.254Z,20.50
2023-07-28T15:45:25.974Z,20.50
2023-07-28T15:47:52.769Z,20.50
2023-07-28T15:50:19.593Z,20.50
2023-07-28T15:52:46.532Z,20.50
2023-07-28T15:55:13.342Z,20.50
2023-07-28T15:57:40.014Z,20.50
2023-07-28T16:00:10.517Z,20.50
2023-07-28T16:02:40.282Z,20.50
2023-07-28T16:05:07.526Z,20.60
2023-07-28T16:07:34.575Z,20.50
2023-07-28T16:10:01.666Z,20.50
2023-07-28T16:12:28.397Z,20.50
2023-07-28T16:14:55.781Z,20.50
2023-07-28T16:17:23.083Z,20.50
2023-07-28T16:19:50.802Z,20.50
2023-07-28T16:22:18.659Z,20.50
2023-07-28T16:24:47.062Z,20.50
2023-07-28T16:27:14.300Z,20.50
2023-07-28T16:29:41.497Z,20.50
2023-07-28T16:32:09.987Z,20.60
2023-07-28T16:34:36.639Z,20.50
2023-07-28T16:37:03.448Z,20.50
2023-07-28T16:39:30.155Z,20.50
2023-07-28T16:41:56.808Z,20.50
2023-07-28T16:44:23.563Z,20.50
2023-07-28T16:46:50.487Z,20.50
2023-07-28T16:49:17.157Z,20.50
2023-07-28T16:51:43.857Z,20.50
2023-07-28T16:54:10.517Z,20.50
2023-07-28T16:56:37.354Z,20.50
2023-07-28T16:59:04.091Z,20.50
2023-07-28T17:01:30.765Z,20.50
2023-07-28T17:03:57.413Z,20.50
2023-07-28T17:06:24.069Z,20.60
2023-07-28T17:08:50.879Z,20.60
2023-07-28T17:11:17.555Z,20.60
2023-07-28T17:13:44.219Z,20.60
2023-07-28T17:16:10.991Z,20.60
2023-07-28T17:18:37.690Z,20.60
2023-07-28T17:21:04.406Z,20.60
2023-07-28T17:23:31.092Z,20.60
2023-07-28T17:25:57.929Z,20.60
2023-07-28T17:28:24.641Z,20.60
2023-07-28T17:30:51.406Z,20.60
2023-07-28T17:33:18.125Z,20.60
2023-07-28T17:35:44.842Z,20.60
2023-07-28T17:38:11.479Z,20.60
2023-07-28T17:40:38.126Z,20.60
2023-07-28T17:43:04.753Z,20.70
2023-07-28T17:45:31.416Z,20.70
2023-07-28T17:47:58.266Z,20.70
2023-07-28T17:50:25.341Z,20.70
2023-07-28T17:52:51.988Z,20.60
2023-07-28T17:55:18.718Z,20.70
2023-07-28T17:57:45.359Z,20.70
2023-07-28T18:00:12.626Z,20.70
2023-07-28T18:02:39.731Z,20.70
2023-07-28T18:05:06.915Z,20.70
2023-07-28T18:07:33.921Z,20.70
2023-07-28T18:10:00.634Z,20.60
2023-07-28T18:12:27.681Z,20.70
2023-07-28T18:14:54.377Z,20.70
2023-07-28T18:17:23.268Z,20.70
2023-07-28T18:19:51.072Z,20.70
2023-07-28T18:22:17.763Z,20.70
2023-07-28T18:24:44.796Z,20.70
2023-07-28T18:27:11.586Z,20.70
2023-07-28T18:29:38.277Z,20.70
2023-07-28T18:32:05.424Z,20.70
2023-07-28T18:34:32.082Z,20.70
2023-07-28T18:36:58.901Z,20.70
2023-07-28T18:39:25.821Z,20.70
2023-07-28T18:41:52.562Z,20.70
2023-07-28T18:44:19.192Z,20.60
2023-07-28T18:46:45.837Z,20.60
2023-07-28T18:49:12.590Z,20.70
2023-07-28T18:51:39.437Z,20.70
2023-07-28T18:54:06.508Z,20.70
2023-07-28T18:56:33.228Z,20.70
2023-07-28T18:58:59.881Z,20.70
2023-07-28T19:01:26.600Z,20.70
2023-07-28T19:03:53.337Z,20.70
2023-07-28T19:06:21.098Z,20.70
2023-07-28T19:08:51.326Z,20.70
2023-07-28T19:11:18.089Z,20.70
2023-07-28T19:13:45.283Z,20.70
2023-07-28T19:16:11.981Z,20.70
2023-07-28T19:18:38.637Z,20.70
2023-07-28T19:21:05.492Z,20.70
2023-07-28T19:23:32.761Z,20.70
2023-07-28T19:25:59.598Z,20.70
2023-07-28T19:28:26.316Z,20.70
2023-07-28T19:30:56.701Z,20.70
2023-07-28T19:33:23.352Z,20.70
2023-07-28T19:35:50.086Z,20.70
2023-07-28T19:38:16.770Z,20.70
2023-07-28T19:40:43.383Z,20.70
2023-07-28T19:43:10.025Z,20.70
2023-07-28T19:45:36.768Z,20.70
2023-07-28T19:48:04.150Z,20.70
2023-07-28T19:50:45.172Z,20.70
2023-07-28T19:53:13.133Z,20.70
2023-07-28T19:55:39.815Z,20.70
2023-07-28T19:58:07.621Z,20.70
2023-07-28T20:00:34.376Z,20.70
2023-07-28T20:03:01.197Z,20.70
2023-07-28T20:05:27.892Z,20.70
2023-07-28T20:07:54.606Z,20.70
2023-07-28T20:10:21.547Z,20.70
2023-07-28T20:12:48.208Z,20.70
2023-07-28T20:15:14.868Z,20.70
2023-07-28T20:17:41.622Z,20.70
2023-07-28T20:20:08.970Z,20.70
2023-07-28T20:22:35.635Z,20.70
2023-07-28T20:25:02.304Z,20.70
2023-07-28T20:27:31.158Z,20.70
2023-07-28T20:29:57.846Z,20.60
2023-07-28T20:32:27.680Z,20.60
2023-07-28T20:34:54.912Z,20.60
2023-07-28T20:37:21.869Z,20.60
2023-07-28T20:39:48.575Z,20.60
2023-07-28T20:42:18.384Z,20.60
2023-07-28T20:44:45.629Z,20.60
2023-07-28T20:47:13.171Z,20.60
2023-07-28T20:49:39.941Z,20.60
2023-07-28T20:52:06.963Z,20.60
2023-07-28T20:54:33.619Z,20.60
2023-07-28T20:57:01.555Z,20.60
2023-07-28T20:59:28.252Z,20.60
2023-07-28T21:01:54.950Z,20.60
2023-07-28T21:04:21.769Z,20.50
2023-07-28T21:06:48.430Z,20.50
2023-07-28T21:09:15.498Z,20.50
2023-07-28T21:11:42.152Z,20.50
2023-07-28T21:14:08.838Z,20.50
2023-07-28T21:16:36.020Z,20.60
2023-07-28T21:19:02.928Z,20.60
2023-07-28T21:21:29.636Z,20.60
2023-07-28T21:23:56.313Z,20.50
2023-07-28T21:26:23.099Z,20.50
2023-07-28T21:28:49.727Z,20.50
2023-07-28T21:31:16.416Z,20.50
2023-07-28T21:33:43.191Z,20.50
2023-07-28T21:36:09.907Z,20.50
2023-07-28T21:38:36.558Z,20.50
2023-07-28T21:41:04.784Z,20.50
2023-07-28T21:43:31.535Z,20.60
2023-07-28T21:45:58.441Z,20.50
2023-07-28T21:48:25.326Z,20.50
2023-07-28T21:50:52.064Z,20.60
2023-07-28T21:53:18.702Z,20.60
2023-07-28T21:55:45.378Z,20.50
2023-07-28T21:58:12.117Z,20.50
2023-07-28T22:00:38.727Z,20.50
2023-07-28T22:03:05.646Z,20.50
2023-07-28T22:05:32.446Z,20.50
2023-07-28T22:08:10.134Z,20.50
2023-07-28T22:10:37.084Z,20.50
2023-07-28T22:13:03.739Z,20.50
2023-07-28T22:15:31.645Z,20.50
2023-07-28T22:17:58.381Z,20.50
2023-07-28T22:20:31.063Z,20.60
2023-07-28T22:22:57.794Z,20.50
2023-07-28T22:25:27.581Z,20.50
2023-07-28T22:27:55.282Z,20.60
2023-07-28T22:30:23.160Z,20.50
2023-07-28T22:32:49.839Z,20.60
2023-07-28T22:35:16.688Z,20.60
2023-07-28T22:37:43.339Z,20.60
2023-07-28T22:40:10.876Z,20.50
2023-07-28T22:42:37.521Z,20.50
2023-07-28T22:45:04.786Z,20.50
2023-07-28T22:47:31.472Z,20.50
2023-07-28T22:49:58.187Z,20.50
2023-07-28T22:52:24.904Z,20.50
2023-07-28T22:54:59.223Z,20.60
2023-07-28T22:57:36.692Z,20.50
2023-07-28T23:00:04.305Z,20.50
2023-07-28T23:02:31.028Z,20.50
2023-07-28T23:04:57.833Z,20.50
2023-07-28T23:07:24.582Z,20.50
2023-07-28T23:09:51.234Z,20.50
2023-07-28T23:12:17.907Z,20.50
2023-07-28T23:14:44.605Z,20.50
2023-07-28T23:17:11.461Z,20.50
2023-07-28T23:19:38.210Z,20.60
2023-07-28T23:22:05.083Z,20.50
2023-07-28T23:24:32.023Z,20.60
2023-07-28T23:26:58.696Z,20.60
2023-07-28T23:29:25.444Z,20.50
2023-07-28T23:31:52.233Z,20.50
2023-07-28T23:34:18.946Z,20.50
2023-07-28T23:36:45.711Z,20.50
2023-07-28T23:39:12.378Z,20.60
2023-07-28T23:41:39.101Z,20.50
2023-07-28T23:44:05.791Z,20.50
2023-07-28T23:46:32.461Z,20.60
2023-07-28T23:48:59.108Z,20.60
2023-07-28T23:51:25.813Z,20.50
2023-07-28T23:53:52.616Z,20.50
2023-07-28T23:56:19.401Z,20.50
2023-07-28T23:58:46.043Z,20.50
